createdAt,value
2022-09-15T00:00:29.025Z,97.30
2022-09-15T00:02:56.066Z,97.50
2022-09-15T00:09:09.636Z,97.80
2022-09-15T00:11:37.713Z,97.90
2022-09-15T00:14:06.970Z,98.10
2022-09-15T00:16:33.912Z,98.20
2022-09-15T00:19:01.456Z,98.30
2022-09-15T00:21:33.855Z,98.20
2022-09-15T00:24:01.698Z,98.30
2022-09-15T00:26:29.755Z,98.30
2022-09-15T00:28:58.210Z,98.40
2022-09-15T00:31:26.902Z,98.60
2022-09-15T00:33:56.213Z,98.90
2022-09-15T00:36:24.069Z,99.10
2022-09-15T00:38:51.649Z,99.50
2022-09-15T00:41:20.446Z,99.70
2022-09-15T00:43:49.903Z,99.70
2022-09-15T00:46:18.903Z,99.70
2022-09-15T00:49:13.249Z,99.80
2022-09-15T00:51:57.091Z,99.70
2022-09-15T00:54:35.737Z,99.70
2022-09-15T00:57:08.127Z,99.30
2022-09-15T00:59:38.266Z,99.10
2022-09-15T01:02:17.632Z,99.10
2022-09-15T01:04:44.831Z,99.10
2022-09-15T01:07:15.249Z,99.00
2022-09-15T01:10:07.425Z,99.00
2022-09-15T01:12:34.498Z,99.00
2022-09-15T01:15:01.918Z,98.80
2022-09-15T01:17:34.512Z,98.70
2022-09-15T01:20:19.329Z,98.60
2022-09-15T01:23:23.663Z,98.50
2022-09-15T01:26:22.743Z,98.40
2022-09-15T01:29:08.195Z,98.40
2022-09-15T01:32:08.165Z,98.70
2022-09-15T01:34:44.792Z,98.40
2022-09-15T01:37:17.953Z,98.10
2022-09-15T01:39:48.039Z,98.10
2022-09-15T01:42:16.713Z,98.20
2022-09-15T01:44:53.042Z,98.60
2022-09-15T01:47:21.123Z,98.80
2022-09-15T01:49:53.228Z,98.90
2022-09-15T01:52:22.143Z,99.00
2022-09-15T01:54:54.021Z,98.80
2022-09-15T01:57:21.724Z,98.30
2022-09-15T01:59:50.547Z,97.80
2022-09-15T02:02:20.877Z,97.40
2022-09-15T02:04:53.189Z,97.00
2022-09-15T02:07:35.595Z,96.60
2022-09-15T02:10:11.588Z,96.30
2022-09-15T02:12:59.916Z,96.20
2022-09-15T02:15:57.306Z,96.20
2022-09-15T02:18:39.440Z,96.00
2022-09-15T02:21:15.978Z,95.90
2022-09-15T02:23:48.544Z,95.80
2022-09-15T02:26:19.595Z,95.80
2022-09-15T02:28:49.210Z,95.80
2022-09-15T02:31:18.647Z,95.80
2022-09-15T02:33:54.979Z,95.80
2022-09-15T02:36:22.272Z,95.90
2022-09-15T02:38:59.553Z,95.90
2022-09-15T02:41:27.143Z,95.90
2022-09-15T02:43:53.785Z,95.90
2022-09-15T02:46:22.118Z,95.80
2022-09-15T02:48:48.817Z,95.60
2022-09-15T02:51:17.583Z,95.70
2022-09-15T02:53:45.562Z,95.60
2022-09-15T02:56:12.845Z,95.60
2022-09-15T02:58:40.639Z,95.40
2022-09-15T03:01:11.272Z,95.40
2022-09-15T03:03:42.354Z,95.40
2022-09-15T03:06:16.642Z,95.30
2022-09-15T03:08:51.677Z,95.50
2022-09-15T03:11:21.061Z,95.30
2022-09-15T03:13:49.076Z,95.20
2022-09-15T03:16:16.482Z,95.00
2022-09-15T03:18:43.369Z,95.10
2022-09-15T03:21:13.964Z,94.90
2022-09-15T03:23:41.763Z,94.80
2022-09-15T03:26:09.487Z,94.70
2022-09-15T03:28:37.829Z,94.70
2022-09-15T03:31:05.789Z,94.60
2022-09-15T03:33:32.752Z,94.50
2022-09-15T03:35:59.691Z,94.70
2022-09-15T03:38:26.638Z,94.60
2022-09-15T03:41:07.661Z,94.90
2022-09-15T03:43:35.588Z,95.20
2022-09-15T03:46:02.913Z,95.40
2022-09-15T03:48:32.677Z,95.40
2022-09-15T03:50:59.396Z,95.30
2022-09-15T03:53:26.077Z,95.00
2022-09-15T03:55:53.081Z,95.20
2022-09-15T03:58:19.912Z,95.10
2022-09-15T04:00:47.063Z,95.30
2022-09-15T04:03:14.185Z,95.10
2022-09-15T04:05:42.293Z,95.20
2022-09-15T04:08:12.644Z,95.50
2022-09-15T04:10:41.209Z,95.70
2022-09-15T04:13:08.526Z,96.00
2022-09-15T04:15:35.297Z,96.40
2022-09-15T04:18:02.218Z,96.70
2022-09-15T04:20:28.907Z,97.00
2022-09-15T04:22:55.613Z,97.20
2022-09-15T04:25:22.623Z,97.40
2022-09-15T04:27:49.328Z,97.50
2022-09-15T04:30:17.163Z,97.60
2022-09-15T04:32:43.821Z,97.80
2022-09-15T04:35:10.610Z,97.90
2022-09-15T04:37:37.261Z,97.80
2022-09-15T04:40:04.486Z,98.00
2022-09-15T04:42:31.628Z,97.90
2022-09-15T04:44:58.500Z,97.50
2022-09-15T04:47:25.136Z,97.20
2022-09-15T04:49:51.837Z,97.00
2022-09-15T04:52:18.697Z,96.90
2022-09-15T04:54:45.616Z,96.80
2022-09-15T04:57:12.487Z,96.50
2022-09-15T04:59:39.128Z,96.20
2022-09-15T05:02:05.873Z,96.10
2022-09-15T05:04:32.645Z,95.90
2022-09-15T05:06:59.316Z,95.60
2022-09-15T05:09:27.839Z,95.90
2022-09-15T05:11:54.473Z,95.50
2022-09-15T05:14:21.123Z,95.40
2022-09-15T05:16:47.793Z,95.40
2022-09-15T05:19:15.555Z,95.50
2022-09-15T05:21:42.409Z,95.90
2022-09-15T05:24:09.123Z,95.60
2022-09-15T05:26:35.800Z,95.60
2022-09-15T05:29:02.509Z,95.90
2022-09-15T05:31:33.870Z,95.50
2022-09-15T05:34:02.941Z,95.50
2022-09-15T05:36:30.229Z,95.60
2022-09-15T05:38:57.294Z,95.70
2022-09-15T05:41:25.317Z,95.70
2022-09-15T05:43:53.431Z,95.70
2022-09-15T05:46:20.608Z,95.80
2022-09-15T05:48:47.494Z,96.20
2022-09-15T05:51:15.051Z,95.80
2022-09-15T05:53:42.227Z,95.30
2022-09-15T05:56:12.195Z,95.00
2022-09-15T05:58:44.497Z,94.80
2022-09-15T06:01:23.420Z,94.70
2022-09-15T06:03:50.738Z,94.80
2022-09-15T06:06:17.786Z,94.80
2022-09-15T06:08:50.054Z,94.80
2022-09-15T06:11:21.148Z,94.80
2022-09-15T06:13:48.233Z,94.80
2022-09-15T06:16:20.728Z,94.50
2022-09-15T06:18:49.137Z,94.20
2022-09-15T06:21:17.444Z,94.20
2022-09-15T06:23:48.582Z,94.30
2022-09-15T06:26:18.963Z,94.30
2022-09-15T06:29:05.413Z,94.40
2022-09-15T06:31:33.921Z,94.20
2022-09-15T06:34:01.242Z,94.20
2022-09-15T06:36:30.282Z,94.00
2022-09-15T06:38:57.769Z,93.90
2022-09-15T06:41:25.105Z,94.00
2022-09-15T06:43:52.955Z,94.30
2022-09-15T06:46:22.460Z,94.40
2022-09-15T06:48:51.123Z,93.90
2022-09-15T06:51:19.696Z,93.70
2022-09-15T06:53:47.269Z,93.80
2022-09-15T06:56:19.745Z,93.60
2022-09-15T06:58:49.212Z,93.30
2022-09-15T07:01:28.936Z,92.70
2022-09-15T07:03:58.132Z,92.10
2022-09-15T07:06:27.774Z,91.70
2022-09-15T07:08:54.659Z,91.40
2022-09-15T07:11:21.494Z,90.90
2022-09-15T07:13:51.561Z,91.00
2022-09-15T07:16:19.411Z,90.20
2022-09-15T07:18:47.738Z,88.80
2022-09-15T07:21:17.009Z,87.40
2022-09-15T07:23:44.737Z,86.70
2022-09-15T07:26:15.988Z,85.40
2022-09-15T07:28:46.612Z,82.70
2022-09-15T07:31:16.357Z,79.80
2022-09-15T07:33:43.321Z,80.20
2022-09-15T07:36:11.012Z,81.60
2022-09-15T07:38:46.569Z,82.10
2022-09-15T07:41:16.116Z,81.50
2022-09-15T07:43:50.619Z,79.80
2022-09-15T07:46:18.909Z,78.20
2022-09-15T07:48:47.276Z,78.00
2022-09-15T07:51:15.098Z,78.00
2022-09-15T07:53:42.997Z,77.50
2022-09-15T07:56:09.923Z,77.30
2022-09-15T07:58:36.580Z,76.60
2022-09-15T08:01:05.232Z,76.00
2022-09-15T08:03:32.555Z,74.00
2022-09-15T08:06:03.309Z,73.30
2022-09-15T08:08:30.522Z,71.50
2022-09-15T08:10:58.081Z,71.00
2022-09-15T08:13:25.060Z,68.80
2022-09-15T08:15:52.539Z,67.10
2022-09-15T08:18:19.288Z,66.10
2022-09-15T08:20:45.956Z,65.00
2022-09-15T08:23:12.708Z,64.50
2022-09-15T08:25:39.645Z,64.00
2022-09-15T08:28:06.521Z,62.40
2022-09-15T08:30:33.360Z,61.60
2022-09-15T08:33:00.026Z,61.40
2022-09-15T08:35:26.760Z,61.30
2022-09-15T08:37:55.288Z,62.40
2022-09-15T08:40:35.665Z,62.20
2022-09-15T08:43:08.982Z,62.90
2022-09-15T08:45:47.666Z,61.60
2022-09-15T08:48:17.336Z,60.30
2022-09-15T08:50:47.530Z,60.00
2022-09-15T08:53:26.377Z,62.00
2022-09-15T08:55:55.801Z,63.10
2022-09-15T08:58:31.240Z,64.90
2022-09-15T09:01:03.309Z,62.80
2022-09-15T09:03:52.967Z,61.40
2022-09-15T09:07:01.983Z,58.60
2022-09-15T09:09:56.916Z,57.20
2022-09-15T09:12:31.400Z,57.20
2022-09-15T09:15:05.324Z,55.90
2022-09-15T09:18:06.878Z,53.20
2022-09-15T09:21:08.130Z,53.60
2022-09-15T09:23:52.215Z,53.00
2022-09-15T09:26:19.669Z,52.30
2022-09-15T09:28:57.847Z,51.00
2022-09-15T09:31:27.182Z,48.10
2022-09-15T09:34:07.841Z,48.70
2022-09-15T09:36:34.601Z,48.90
2022-09-15T09:39:02.633Z,45.20
2022-09-15T09:41:38.937Z,45.60
2022-09-15T09:44:12.535Z,43.00
2022-09-15T09:46:39.388Z,43.70
2022-09-15T09:49:23.160Z,44.50
2022-09-15T09:51:57.183Z,43.50
2022-09-15T09:54:28.320Z,42.60
2022-09-15T09:56:57.393Z,42.60
2022-09-15T09:59:46.486Z,42.40
2022-09-15T10:02:20.621Z,41.30
2022-09-15T10:04:48.405Z,42.80
2022-09-15T10:07:18.088Z,42.60
2022-09-15T10:09:54.129Z,41.50
2022-09-15T10:12:33.468Z,41.90
2022-09-15T10:15:03.563Z,40.30
2022-09-15T10:17:36.363Z,40.30
2022-09-15T10:20:06.312Z,38.70
2022-09-15T10:22:37.466Z,37.40
2022-09-15T10:25:39.523Z,36.80
2022-09-15T10:28:15.265Z,36.80
2022-09-15T10:31:06.273Z,36.90
2022-09-15T10:33:35.123Z,36.30
2022-09-15T10:36:14.746Z,36.50
2022-09-15T10:38:45.087Z,35.60
2022-09-15T10:41:31.787Z,34.10
2022-09-15T10:44:35.936Z,35.20
2022-09-15T10:47:26.369Z,34.90
2022-09-15T10:50:12.308Z,35.20
2022-09-15T10:53:04.556Z,35.00
2022-09-15T10:55:58.332Z,35.10
2022-09-15T10:58:42.345Z,35.80
2022-09-15T11:01:29.974Z,35.70
2022-09-15T11:04:00.207Z,35.80
2022-09-15T11:06:55.324Z,36.10
2022-09-15T11:09:41.399Z,36.60
2022-09-15T11:12:28.395Z,36.60
2022-09-15T11:15:25.450Z,36.30
2022-09-15T11:18:15.491Z,36.10
2022-09-15T11:21:07.805Z,35.40
2022-09-15T11:23:56.545Z,35.10
2022-09-15T11:27:03.104Z,33.80
2022-09-15T11:30:01.605Z,34.10
2022-09-15T11:32:34.248Z,33.50
2022-09-15T11:35:06.900Z,33.80
2022-09-15T11:37:42.916Z,34.30
2022-09-15T11:40:29.353Z,33.30
2022-09-15T11:43:14.205Z,32.80
2022-09-15T11:45:47.700Z,33.30
2022-09-15T11:48:19.640Z,33.50
2022-09-15T11:50:49.085Z,34.40
2022-09-15T11:53:27.858Z,35.10
2022-09-15T11:56:13.213Z,33.90
2022-09-15T11:58:40.876Z,33.20
2022-09-15T12:01:19.549Z,33.00
2022-09-15T12:04:01.833Z,33.10
2022-09-15T12:06:52.695Z,34.00
2022-09-15T12:09:21.380Z,33.60
2022-09-15T12:12:01.957Z,34.40
2022-09-15T12:14:32.200Z,33.90
2022-09-15T12:17:00.013Z,34.10
2022-09-15T12:19:33.470Z,34.00
2022-09-15T12:22:28.962Z,35.00
2022-09-15T12:25:05.493Z,35.10
2022-09-15T12:27:32.367Z,33.40
2022-09-15T12:30:00.882Z,34.80
2022-09-15T12:32:31.986Z,36.10
2022-09-15T12:35:00.104Z,36.40
2022-09-15T12:37:39.736Z,36.30
2022-09-15T12:40:24.402Z,36.70
2022-09-15T12:42:51.378Z,35.20
2022-09-15T12:45:24.281Z,36.00
2022-09-15T12:48:18.900Z,36.30
2022-09-15T12:50:54.786Z,36.80
2022-09-15T12:53:37.862Z,35.20
2022-09-15T12:56:10.360Z,35.30
2022-09-15T12:58:40.605Z,33.40
2022-09-15T13:01:19.693Z,33.80
2022-09-15T13:03:47.818Z,34.60
2022-09-15T13:06:23.653Z,35.50
2022-09-15T13:09:01.361Z,36.50
2022-09-15T13:11:36.793Z,36.60
2022-09-15T13:14:03.542Z,37.30
2022-09-15T13:16:48.617Z,37.60
2022-09-15T13:19:35.932Z,38.10
2022-09-15T13:22:11.797Z,38.40
2022-09-15T13:24:50.926Z,40.00
2022-09-15T13:27:22.295Z,39.40
2022-09-15T13:30:11.347Z,40.30
2022-09-15T13:33:05.716Z,40.90
2022-09-15T13:35:57.841Z,41.60
2022-09-15T13:39:06.996Z,40.50
2022-09-15T13:42:31.563Z,38.40
2022-09-15T13:45:11.829Z,37.80
2022-09-15T13:47:52.317Z,38.20
2022-09-15T13:50:26.357Z,38.80
2022-09-15T13:53:27.233Z,38.40
2022-09-15T13:55:55.548Z,38.10
2022-09-15T14:01:14.266Z,36.30
2022-09-15T14:03:48.409Z,37.30
2022-09-15T14:06:22.253Z,36.90
2022-09-15T14:08:53.348Z,37.20
2022-09-15T14:11:32.037Z,37.60
2022-09-15T14:14:00.869Z,37.80
2022-09-15T14:16:27.923Z,38.50
2022-09-15T14:18:58.308Z,39.30
2022-09-15T14:21:27.951Z,39.80
2022-09-15T14:23:57.269Z,40.50
2022-09-15T14:26:29.174Z,40.80
2022-09-15T14:29:02.390Z,41.00
2022-09-15T14:31:32.946Z,41.80
2022-09-15T14:34:01.574Z,41.10
2022-09-15T14:36:33.450Z,40.10
2022-09-15T14:39:21.492Z,39.70
2022-09-15T14:41:50.122Z,40.80
2022-09-15T14:47:28.269Z,42.30
2022-09-15T14:50:15.913Z,41.80
2022-09-15T14:53:03.185Z,41.90
2022-09-15T14:56:00.620Z,42.20
2022-09-15T14:58:37.453Z,42.50
2022-09-15T15:01:15.526Z,41.90
2022-09-15T15:04:19.518Z,42.10
2022-09-15T15:06:49.069Z,41.20
2022-09-15T15:09:27.272Z,40.90
2022-09-15T15:11:59.445Z,41.50
2022-09-15T15:14:26.677Z,41.40
2022-09-15T15:16:59.450Z,42.80
2022-09-15T15:19:38.360Z,44.30
2022-09-15T15:22:11.873Z,44.70
2022-09-15T15:24:44.844Z,43.90
2022-09-15T15:27:33.738Z,43.50
2022-09-15T15:30:24.037Z,42.80
2022-09-15T15:32:50.843Z,42.40
2022-09-15T15:35:18.253Z,42.00
2022-09-15T15:37:47.209Z,41.90
2022-09-15T15:40:23.150Z,42.40
2022-09-15T15:43:04.869Z,42.60
2022-09-15T15:45:47.791Z,42.80
2022-09-15T15:48:14.559Z,43.00
2022-09-15T15:50:41.240Z,42.60
2022-09-15T15:53:07.981Z,42.50
2022-09-15T15:55:41.013Z,42.60
2022-09-15T15:58:10.155Z,43.20
2022-09-15T16:00:48.298Z,44.60
2022-09-15T16:03:17.085Z,46.40
2022-09-15T16:05:50.074Z,48.10
2022-09-15T16:08:33.001Z,47.30
2022-09-15T16:11:02.207Z,47.40
2022-09-15T16:13:29.061Z,43.20
2022-09-15T16:15:57.835Z,39.30
2022-09-15T16:18:26.313Z,37.20
2022-09-15T16:20:53.661Z,35.60
2022-09-15T16:23:22.784Z,35.20
2022-09-15T16:25:54.204Z,35.60
2022-09-15T16:28:20.914Z,36.70
2022-09-15T16:30:48.032Z,37.90
2022-09-15T16:33:16.678Z,39.80
2022-09-15T16:35:51.453Z,42.00
2022-09-15T16:38:20.114Z,43.50
2022-09-15T16:40:51.172Z,44.50
2022-09-15T16:43:20.902Z,45.40
2022-09-15T16:45:48.877Z,46.60
2022-09-15T16:48:15.751Z,46.10
2022-09-15T16:53:32.669Z,47.60
2022-09-15T16:55:59.365Z,49.00
2022-09-15T16:58:27.692Z,49.90
2022-09-15T17:00:56.105Z,51.10
2022-09-15T17:03:25.585Z,51.50
2022-09-15T17:05:56.665Z,52.50
2022-09-15T17:08:27.284Z,54.10
2022-09-15T17:10:56.224Z,55.40
2022-09-15T17:13:27.739Z,57.40
2022-09-15T17:15:57.839Z,59.90
2022-09-15T17:18:24.932Z,60.20
2022-09-15T17:20:52.352Z,60.50
2022-09-15T17:23:39.219Z,59.40
2022-09-15T17:26:10.768Z,58.50
2022-09-15T17:28:37.928Z,58.70
2022-09-15T17:31:11.269Z,57.10
2022-09-15T17:33:38.046Z,56.40
2022-09-15T17:36:04.887Z,56.20
2022-09-15T17:38:32.279Z,56.70
2022-09-15T17:40:59.094Z,60.20
2022-09-15T17:43:28.158Z,63.00
2022-09-15T17:45:55.310Z,64.60
2022-09-15T17:48:22.771Z,67.10
2022-09-15T17:50:50.306Z,69.90
2022-09-15T17:53:22.676Z,76.80
2022-09-15T17:55:51.100Z,80.80
2022-09-15T17:58:18.247Z,81.10
2022-09-15T18:00:45.862Z,84.40
2022-09-15T18:03:27.732Z,85.10
2022-09-15T18:05:56.376Z,86.00
2022-09-15T18:08:23.276Z,87.60
2022-09-15T18:10:50.688Z,86.80
2022-09-15T18:13:20.516Z,86.50
2022-09-15T18:15:49.017Z,87.20
2022-09-15T18:18:22.005Z,86.90
2022-09-15T18:20:50.164Z,86.60
2022-09-15T18:23:20.241Z,86.40
2022-09-15T18:25:48.057Z,86.20
2022-09-15T18:28:15.396Z,87.30
2022-09-15T18:30:44.260Z,87.00
2022-09-15T18:33:16.752Z,86.30
2022-09-15T18:35:44.408Z,86.20
2022-09-15T18:38:11.761Z,86.10
2022-09-15T18:40:38.911Z,87.30
2022-09-15T18:43:05.855Z,87.80
2022-09-15T18:45:32.639Z,88.20
2022-09-15T18:48:00.421Z,88.20
2022-09-15T18:50:27.550Z,88.70
2022-09-15T18:52:54.601Z,89.30
2022-09-15T18:55:22.513Z,89.00
2022-09-15T18:57:49.647Z,89.20
2022-09-15T19:00:19.916Z,89.30
2022-09-15T19:02:47.325Z,90.20
2022-09-15T19:05:17.889Z,89.80
2022-09-15T19:07:45.540Z,89.90
2022-09-15T19:10:14.037Z,90.00
2022-09-15T19:12:40.995Z,89.90
2022-09-15T19:15:12.057Z,90.10
2022-09-15T19:17:39.651Z,90.00
2022-09-15T19:20:08.324Z,89.90
2022-09-15T19:22:35.897Z,89.50
2022-09-15T19:25:04.204Z,87.80
2022-09-15T19:27:30.864Z,89.80
2022-09-15T19:29:57.540Z,90.10
2022-09-15T19:32:24.534Z,90.30
2022-09-15T19:34:51.259Z,90.50
2022-09-15T19:37:20.299Z,89.90
2022-09-15T19:39:48.602Z,88.50
2022-09-15T19:44:42.489Z,86.70
2022-09-15T19:47:10.002Z,86.30
2022-09-15T19:49:36.732Z,86.30
2022-09-15T19:52:05.281Z,86.20
2022-09-15T19:54:32.020Z,86.20
2022-09-15T19:56:58.693Z,86.10
2022-09-15T19:59:30.166Z,86.00
2022-09-15T20:01:58.119Z,86.20
2022-09-15T20:04:24.866Z,86.70
2022-09-15T20:06:51.817Z,86.50
2022-09-15T20:09:18.768Z,86.40
2022-09-15T20:11:45.479Z,86.10
2022-09-15T20:14:12.194Z,86.50
2022-09-15T20:16:39.025Z,89.20
2022-09-15T20:19:06.183Z,90.60
2022-09-15T20:21:49.850Z,91.50
2022-09-15T20:24:18.512Z,92.40
2022-09-15T20:26:45.210Z,93.90
2022-09-15T20:29:13.210Z,93.40
2022-09-15T20:31:40.087Z,93.60
2022-09-15T20:34:06.783Z,93.90
2022-09-15T20:36:36.051Z,94.50
2022-09-15T20:39:05.419Z,94.70
2022-09-15T20:41:32.513Z,94.90
2022-09-15T20:44:00.273Z,95.20
2022-09-15T20:46:29.219Z,95.30
2022-09-15T20:48:56.020Z,95.50
2022-09-15T20:51:29.461Z,95.80
2022-09-15T20:53:57.876Z,96.00
2022-09-15T20:56:27.877Z,96.20
2022-09-15T20:58:56.871Z,96.40
2022-09-15T21:01:26.217Z,96.50
2022-09-15T21:03:55.473Z,96.80
2022-09-15T21:06:27.301Z,98.30
2022-09-15T21:08:56.877Z,99.90
2022-09-15T21:11:26.485Z,99.90
2022-09-15T21:13:53.831Z,99.80
2022-09-15T21:16:22.652Z,99.40
2022-09-15T21:18:50.748Z,99.90
2022-09-15T21:21:23.603Z,99.90
2022-09-15T21:23:52.368Z,99.90
2022-09-15T21:26:21.262Z,99.90
2022-09-15T21:28:48.729Z,99.90
2022-09-15T21:31:18.918Z,99.90
2022-09-15T21:33:47.209Z,99.90
2022-09-15T21:36:15.204Z,99.90
2022-09-15T21:38:43.984Z,99.90
2022-09-15T21:41:16.045Z,99.90
2022-09-15T21:43:46.110Z,99.90
2022-09-15T21:46:18.236Z,99.90
2022-09-15T21:48:47.077Z,99.90
2022-09-15T21:51:24.585Z,99.90
2022-09-15T21:53:53.904Z,99.90
2022-09-15T21:56:21.561Z,99.90
2022-09-15T21:58:48.734Z,99.90
2022-09-15T22:01:19.218Z,99.90
2022-09-15T22:03:51.836Z,99.90
2022-09-15T22:06:20.756Z,99.90
2022-09-15T22:08:48.039Z,99.90
2022-09-15T22:11:15.045Z,99.90
2022-09-15T22:13:43.878Z,99.90
2022-09-15T22:16:13.913Z,99.90
2022-09-15T22:18:44.675Z,99.90
2022-09-15T22:21:13.556Z,99.90
2022-09-15T22:23:41.003Z,99.90
2022-09-15T22:26:28.023Z,99.90
2022-09-15T22:28:55.712Z,99.90
2022-09-15T22:31:23.991Z,99.90
2022-09-15T22:33:51.186Z,99.90
2022-09-15T22:36:21.005Z,99.90
2022-09-15T22:38:49.880Z,99.90
2022-09-15T22:41:19.366Z,99.90
2022-09-15T22:43:49.281Z,99.90
2022-09-15T22:46:17.853Z,99.90
2022-09-15T22:48:44.775Z,99.90
2022-09-15T22:51:12.606Z,99.90
2022-09-15T22:53:39.381Z,99.90
2022-09-15T22:56:09.900Z,99.90
2022-09-15T22:58:37.257Z,99.90
2022-09-15T23:01:10.092Z,99.90
2022-09-15T23:03:38.102Z,99.90
2022-09-15T23:06:05.905Z,99.90
2022-09-15T23:08:33.763Z,99.90
2022-09-15T23:11:11.209Z,99.90
2022-09-15T23:13:37.908Z,99.90
2022-09-15T23:16:05.773Z,99.90
2022-09-15T23:18:34.691Z,99.90
2022-09-15T23:21:09.180Z,99.90
2022-09-15T23:23:38.316Z,99.90
2022-09-15T23:26:07.570Z,99.90
2022-09-15T23:28:34.574Z,99.90
2022-09-15T23:31:01.252Z,99.90
2022-09-15T23:33:29.614Z,99.90
2022-09-15T23:36:02.991Z,99.90
2022-09-15T23:38:29.882Z,99.90
2022-09-15T23:40:56.727Z,99.90
2022-09-15T23:43:23.842Z,99.90
2022-09-15T23:45:51.251Z,99.90
2022-09-15T23:48:18.178Z,99.90
2022-09-15T23:50:44.975Z,99.90
2022-09-15T23:53:12.118Z,99.90
2022-09-15T23:55:38.881Z,99.90
2022-09-15T23:58:06.060Z,99.90
